createdAt,value
2019-01-25T00:01:17.017Z,94781.92
2019-01-25T00:03:44.385Z,94781.17
2019-01-25T00:06:11.867Z,94770.28
2019-01-25T00:08:39.571Z,94777.03
2019-01-25T00:11:07.140Z,94777.80
2019-01-25T00:13:34.767Z,94781.09
2019-01-25T00:16:02.442Z,94781.30
2019-01-25T00:18:29.886Z,94781.30
2019-01-25T00:20:57.270Z,94776.11
2019-01-25T00:23:24.710Z,94779.06
2019-01-25T00:25:52.087Z,94770.44
2019-01-25T00:28:19.463Z,94770.70
2019-01-25T00:30:46.886Z,94768.25
2019-01-25T00:33:14.262Z,94770.88
2019-01-25T00:35:41.642Z,94770.88
2019-01-25T00:38:09.102Z,94776.19
2019-01-25T00:40:36.514Z,94772.71
2019-01-25T00:43:04.904Z,94780.50
2019-01-25T00:45:32.426Z,94780.50
2019-01-25T00:47:59.822Z,94783.83
2019-01-25T00:50:27.182Z,94787.50
2019-01-25T00:52:54.602Z,94782.49
2019-01-25T00:55:21.962Z,94785.65
2019-01-25T00:57:49.362Z,94782.61
2019-01-25T01:00:19.323Z,94782.61
2019-01-25T01:02:46.742Z,94785.02
2019-01-25T01:05:14.515Z,94785.02
2019-01-25T01:07:41.902Z,94794.36
2019-01-25T01:10:14.151Z,94794.36
2019-01-25T01:12:39.402Z,94775.52
2019-01-25T01:15:07.866Z,94791.34
2019-01-25T01:17:35.321Z,94779.02
2019-01-25T01:20:03.761Z,94779.02
2019-01-25T01:22:31.183Z,94790.45
2019-01-25T01:24:58.523Z,94790.45
2019-01-25T01:27:25.903Z,94790.41
2019-01-25T01:29:53.282Z,94797.88
2019-01-25T01:32:20.664Z,94797.88
2019-01-25T01:34:48.119Z,94796.38
2019-01-25T01:37:15.902Z,94800.53
2019-01-25T01:39:43.306Z,94800.53
2019-01-25T01:42:10.664Z,94807.12
2019-01-25T01:44:38.102Z,94805.02
2019-01-25T01:47:05.482Z,94796.98
2019-01-25T01:49:32.843Z,94796.98
2019-01-25T01:52:00.287Z,94801.13
2019-01-25T01:54:27.717Z,94807.27
2019-01-25T01:56:55.122Z,94806.49
2019-01-25T01:59:22.542Z,94806.88
2019-01-25T02:01:50.344Z,94806.88
2019-01-25T02:04:17.722Z,94811.16
2019-01-25T02:06:45.267Z,94812.91
2019-01-25T02:09:12.626Z,94812.91
2019-01-25T02:11:40.482Z,94811.45
2019-01-25T02:14:07.884Z,94818.93
2019-01-25T02:16:35.262Z,94824.38
2019-01-25T02:19:02.602Z,94817.85
2019-01-25T02:21:29.967Z,94816.31
2019-01-25T02:23:57.384Z,94821.23
2019-01-25T02:26:24.743Z,94826.30
2019-01-25T02:28:52.112Z,94822.31
2019-01-25T02:31:19.518Z,94817.83
2019-01-25T02:33:46.944Z,94823.15
2019-01-25T02:36:14.342Z,94823.15
2019-01-25T02:38:41.727Z,94824.58
2019-01-25T02:41:10.605Z,94819.47
2019-01-25T02:43:38.427Z,94819.47
2019-01-25T02:46:05.783Z,94825.13
2019-01-25T02:48:33.163Z,94824.48
2019-01-25T02:51:00.542Z,94830.89
2019-01-25T02:53:27.932Z,94827.35
2019-01-25T02:55:55.306Z,94833.20
2019-01-25T02:58:22.705Z,94826.46
2019-01-25T03:00:50.124Z,94827.91
2019-01-25T03:03:17.530Z,94827.91
2019-01-25T03:05:44.889Z,94837.79
2019-01-25T03:08:12.303Z,94842.54
2019-01-25T03:10:47.078Z,94842.62
2019-01-25T03:13:08.963Z,94835.93
2019-01-25T03:15:36.323Z,94843.02
2019-01-25T03:18:04.406Z,94845.14
2019-01-25T03:20:31.802Z,94851.91
2019-01-25T03:22:59.162Z,94841.41
2019-01-25T03:25:27.222Z,94849.33
2019-01-25T03:27:54.623Z,94844.20
2019-01-25T03:30:22.852Z,94846.27
2019-01-25T03:32:50.259Z,94853.25
2019-01-25T03:35:19.792Z,94853.25
2019-01-25T03:37:47.385Z,94853.48
2019-01-25T03:40:22.642Z,94861.00
2019-01-25T03:42:50.120Z,94865.08
2019-01-25T03:45:18.006Z,94867.39
2019-01-25T03:47:45.363Z,94870.45
2019-01-25T03:50:17.126Z,94870.50
2019-01-25T03:52:44.483Z,94870.16
2019-01-25T03:55:12.379Z,94869.22
2019-01-25T03:57:39.806Z,94885.19
2019-01-25T04:00:13.214Z,94880.14
2019-01-25T04:02:40.602Z,94880.14
2019-01-25T04:05:09.263Z,94876.59
2019-01-25T04:07:36.644Z,94877.34
2019-01-25T04:10:05.607Z,94877.34
2019-01-25T04:12:32.965Z,94881.58
2019-01-25T04:15:00.383Z,94885.99
2019-01-25T04:17:27.760Z,94883.93
2019-01-25T04:19:55.123Z,94894.61
2019-01-25T04:22:22.538Z,94892.34
2019-01-25T04:24:49.887Z,94894.06
2019-01-25T04:27:17.243Z,94898.62
2019-01-25T04:29:44.654Z,94899.79
2019-01-25T04:32:12.023Z,94904.47
2019-01-25T04:34:39.404Z,94906.48
2019-01-25T04:37:06.826Z,94904.70
2019-01-25T04:39:34.181Z,94899.08
2019-01-25T04:42:01.528Z,94906.59
2019-01-25T04:44:28.903Z,94903.63
2019-01-25T04:46:56.295Z,94907.42
2019-01-25T04:49:23.668Z,94907.42
2019-01-25T04:51:51.002Z,94906.36
2019-01-25T04:54:18.353Z,94900.84
2019-01-25T04:56:45.783Z,94900.52
2019-01-25T04:59:13.103Z,94909.36
2019-01-25T05:01:40.504Z,94904.42
2019-01-25T05:04:07.865Z,94909.30
2019-01-25T05:06:35.210Z,94912.16
2019-01-25T05:09:04.604Z,94921.79
2019-01-25T05:11:31.990Z,94921.79
2019-01-25T05:13:59.367Z,94918.34
2019-01-25T05:16:26.885Z,94923.08
2019-01-25T05:18:54.269Z,94926.30
2019-01-25T05:21:23.294Z,94926.30
2019-01-25T05:23:50.683Z,94932.36
2019-01-25T05:26:18.019Z,94932.44
2019-01-25T05:28:45.461Z,94940.37
2019-01-25T05:31:14.533Z,94936.03
2019-01-25T05:33:49.788Z,94932.63
2019-01-25T05:36:17.216Z,94939.30
2019-01-25T05:38:47.784Z,94939.30
2019-01-25T05:41:15.363Z,94949.34
2019-01-25T05:43:42.876Z,94949.34
2019-01-25T05:46:10.367Z,94943.22
2019-01-25T05:48:37.780Z,94945.44
2019-01-25T05:51:06.046Z,94953.13
2019-01-25T05:53:33.451Z,94942.22
2019-01-25T05:56:00.865Z,94959.82
2019-01-25T05:58:28.225Z,94959.82
2019-01-25T06:00:55.589Z,94963.76
2019-01-25T06:03:22.997Z,94967.83
2019-01-25T06:05:57.673Z,94961.16
2019-01-25T06:08:32.397Z,94961.16
2019-01-25T06:11:10.256Z,94972.48
2019-01-25T06:13:38.903Z,94979.00
2019-01-25T06:16:06.358Z,94976.53
2019-01-25T06:18:33.723Z,94987.20
2019-01-25T06:21:01.147Z,94990.34
2019-01-25T06:23:28.646Z,94990.34
2019-01-25T06:25:57.538Z,94986.33
2019-01-25T06:28:25.203Z,94986.33
2019-01-25T06:30:52.841Z,94993.59
2019-01-25T06:33:20.249Z,94998.34
2019-01-25T06:35:48.210Z,95002.45
2019-01-25T06:38:15.601Z,95002.45
2019-01-25T06:40:42.968Z,95007.30
2019-01-25T06:43:10.411Z,95009.91
2019-01-25T06:45:37.793Z,95009.91
2019-01-25T06:48:05.344Z,95004.88
2019-01-25T06:50:32.746Z,95012.23
2019-01-25T06:53:00.123Z,95019.46
2019-01-25T06:55:27.514Z,95025.06
2019-01-25T06:58:14.431Z,95025.06
2019-01-25T07:00:48.206Z,95022.99
2019-01-25T07:03:15.598Z,95022.99
2019-01-25T07:05:42.966Z,95025.55
2019-01-25T07:08:15.140Z,95030.38
2019-01-25T07:10:42.502Z,95030.38
2019-01-25T07:13:09.883Z,95038.09
2019-01-25T07:15:37.268Z,95041.70
2019-01-25T07:18:05.949Z,95050.31
2019-01-25T07:20:33.302Z,95047.30
2019-01-25T07:23:00.704Z,95050.97
2019-01-25T07:25:30.604Z,95055.12
2019-01-25T07:27:57.984Z,95054.10
2019-01-25T07:30:25.387Z,95056.47
2019-01-25T07:32:52.752Z,95058.50
2019-01-25T07:35:20.083Z,95058.50
2019-01-25T07:37:47.503Z,95066.15
2019-01-25T07:40:14.835Z,95060.21
2019-01-25T07:42:42.190Z,95064.11
2019-01-25T07:45:09.731Z,95072.22
2019-01-25T07:47:37.193Z,95077.16
2019-01-25T07:50:05.823Z,95077.16
2019-01-25T07:52:33.228Z,95075.92
2019-01-25T07:55:00.681Z,95084.66
2019-01-25T07:57:28.087Z,95084.44
2019-01-25T07:59:55.528Z,95086.56
2019-01-25T08:02:22.962Z,95092.33
2019-01-25T08:04:50.365Z,95090.41
2019-01-25T08:07:17.729Z,95092.80
2019-01-25T08:09:45.107Z,95090.30
2019-01-25T08:12:12.537Z,95096.09
2019-01-25T08:14:39.913Z,95093.97
2019-01-25T08:17:07.293Z,95095.91
2019-01-25T08:19:34.693Z,95111.70
2019-01-25T08:22:02.023Z,95100.69
2019-01-25T08:24:29.385Z,95103.25
2019-01-25T08:26:56.809Z,95099.69
2019-01-25T08:29:28.242Z,95106.83
2019-01-25T08:31:53.530Z,95108.67
2019-01-25T08:34:21.012Z,95114.19
2019-01-25T08:36:48.959Z,95110.06
2019-01-25T08:39:16.388Z,95115.44
2019-01-25T08:41:43.803Z,95111.61
2019-01-25T08:44:11.179Z,95121.53
2019-01-25T08:46:38.534Z,95118.77
2019-01-25T08:49:05.987Z,95120.19
2019-01-25T08:51:33.389Z,95121.16
2019-01-25T08:54:00.799Z,95121.92
2019-01-25T08:56:28.279Z,95126.34
2019-01-25T08:58:55.826Z,95126.34
2019-01-25T09:01:23.386Z,95122.02
2019-01-25T09:03:50.765Z,95127.91
2019-01-25T09:06:18.127Z,95130.42
2019-01-25T09:08:45.525Z,95129.41
2019-01-25T09:11:12.901Z,95133.34
2019-01-25T09:13:40.314Z,95130.98
2019-01-25T09:16:07.669Z,95134.33
2019-01-25T09:18:35.008Z,95134.33
2019-01-25T09:21:02.429Z,95138.28
2019-01-25T09:23:29.783Z,95135.63
2019-01-25T09:26:01.138Z,95140.70
2019-01-25T09:28:26.487Z,95141.88
2019-01-25T09:30:53.853Z,95143.09
2019-01-25T09:33:21.227Z,95145.07
2019-01-25T09:35:48.643Z,95145.95
2019-01-25T09:38:16.044Z,95139.18
2019-01-25T09:40:43.482Z,95141.62
2019-01-25T09:43:10.902Z,95141.62
2019-01-25T09:45:38.408Z,95135.84
2019-01-25T09:48:05.952Z,95162.02
2019-01-25T09:50:33.344Z,95162.02
2019-01-25T09:53:00.727Z,95153.84
2019-01-25T09:55:28.124Z,95154.47
2019-01-25T09:57:56.642Z,95154.56
2019-01-25T10:00:27.743Z,95148.28
2019-01-25T10:02:55.177Z,95148.28
2019-01-25T10:05:22.534Z,95145.53
2019-01-25T10:07:49.962Z,95145.53
2019-01-25T10:10:17.457Z,95061.39
2019-01-25T10:12:44.851Z,95151.24
2019-01-25T10:15:15.229Z,95150.67
2019-01-25T10:17:42.625Z,95141.97
2019-01-25T10:20:10.132Z,95141.97
2019-01-25T10:22:37.678Z,95132.70
2019-01-25T10:25:05.523Z,95144.51
2019-01-25T10:27:32.899Z,95144.51
2019-01-25T10:30:00.391Z,95136.40
2019-01-25T10:32:27.751Z,95140.23
2019-01-25T10:34:55.147Z,95137.13
2019-01-25T10:37:22.573Z,95136.59
2019-01-25T10:39:49.947Z,95133.57
2019-01-25T10:42:17.304Z,95134.64
2019-01-25T10:44:44.819Z,95127.55
2019-01-25T10:47:12.268Z,95119.75
2019-01-25T10:49:39.657Z,95126.74
2019-01-25T10:52:07.053Z,95126.62
2019-01-25T10:54:34.424Z,95125.74
2019-01-25T10:57:01.803Z,95121.04
2019-01-25T10:59:29.237Z,95117.31
2019-01-25T11:01:56.613Z,95116.17
2019-01-25T11:04:24.075Z,95112.66
2019-01-25T11:06:51.597Z,95114.11
2019-01-25T11:09:18.947Z,95113.70
2019-01-25T11:11:46.910Z,95110.82
2019-01-25T11:14:14.376Z,95115.82
2019-01-25T11:16:41.766Z,95112.12
2019-01-25T11:19:09.187Z,95119.49
2019-01-25T11:21:37.676Z,95113.52
2019-01-25T11:24:07.807Z,95113.52
2019-01-25T11:26:34.677Z,95112.23
2019-01-25T11:29:02.171Z,95111.07
2019-01-25T11:31:29.577Z,95116.68
2019-01-25T11:33:56.947Z,95115.11
2019-01-25T11:36:24.362Z,95117.41
2019-01-25T11:38:51.775Z,95117.49
2019-01-25T11:41:19.184Z,95117.49
2019-01-25T11:43:46.583Z,95108.29
2019-01-25T11:46:14.008Z,95108.29
2019-01-25T11:48:41.432Z,95112.00
2019-01-25T11:51:08.850Z,95104.97
2019-01-25T11:53:36.211Z,95099.63
2019-01-25T11:56:03.744Z,95093.75
2019-01-25T11:58:31.176Z,95102.27
2019-01-25T12:00:58.579Z,95100.21
2019-01-25T12:03:26.008Z,95088.38
2019-01-25T12:05:53.363Z,95091.02
2019-01-25T12:08:20.743Z,95092.30
2019-01-25T12:10:49.367Z,95080.17
2019-01-25T12:13:16.728Z,95080.17
2019-01-25T12:15:44.128Z,95099.69
2019-01-25T12:18:11.520Z,95099.69
2019-01-25T12:20:40.053Z,95097.84
2019-01-25T12:23:07.483Z,95087.48
2019-01-25T12:25:34.882Z,95087.48
2019-01-25T12:28:05.317Z,95101.08
2019-01-25T12:30:37.765Z,95101.08
2019-01-25T12:33:05.069Z,95092.91
2019-01-25T12:35:34.992Z,95093.07
2019-01-25T12:38:02.386Z,95091.87
2019-01-25T12:40:29.802Z,95087.68
2019-01-25T12:42:57.227Z,95089.72
2019-01-25T12:45:25.827Z,95093.60
2019-01-25T12:47:53.283Z,95094.84
2019-01-25T12:50:35.797Z,95085.70
2019-01-25T12:53:03.773Z,95092.52
2019-01-25T12:55:36.028Z,95098.91
2019-01-25T12:58:03.452Z,95100.81
2019-01-25T13:00:30.952Z,95096.54
2019-01-25T13:02:58.506Z,95096.56
2019-01-25T13:05:25.906Z,95095.86
2019-01-25T13:07:53.427Z,95092.83
2019-01-25T13:10:21.815Z,95082.47
2019-01-25T13:12:49.207Z,95085.42
2019-01-25T13:15:16.729Z,95086.67
2019-01-25T13:17:44.165Z,95089.81
2019-01-25T13:20:14.466Z,95089.71
2019-01-25T13:22:41.874Z,95091.23
2019-01-25T13:25:09.408Z,95095.31
2019-01-25T13:27:36.944Z,95098.54
2019-01-25T13:30:07.397Z,95103.09
2019-01-25T13:32:35.163Z,95104.36
2019-01-25T13:35:02.831Z,95098.73
2019-01-25T13:37:31.573Z,95104.94
2019-01-25T13:39:59.187Z,95102.14
2019-01-25T13:42:26.535Z,95104.33
2019-01-25T13:44:53.983Z,95105.38
2019-01-25T13:47:21.387Z,95112.33
2019-01-25T13:49:48.791Z,95125.13
2019-01-25T13:52:16.291Z,95126.95
2019-01-25T13:54:46.154Z,95126.95
2019-01-25T13:57:13.596Z,95125.97
2019-01-25T13:59:41.013Z,95121.80
2019-01-25T14:02:08.447Z,95129.58
2019-01-25T14:04:35.979Z,95128.42
2019-01-25T14:07:03.407Z,95129.27
2019-01-25T14:09:30.806Z,95124.95
2019-01-25T14:11:58.244Z,95129.38
2019-01-25T14:14:25.655Z,95128.22
2019-01-25T14:16:53.083Z,95128.22
2019-01-25T14:19:20.547Z,95131.09
2019-01-25T14:21:47.983Z,95136.38
2019-01-25T14:24:16.755Z,95142.15
2019-01-25T14:26:44.752Z,95143.45
2019-01-25T14:29:12.212Z,95148.96
2019-01-25T14:31:39.748Z,95152.42
2019-01-25T14:34:07.198Z,95141.76
2019-01-25T14:36:34.753Z,95146.05
2019-01-25T14:39:06.368Z,95155.25
2019-01-25T14:41:33.909Z,95155.25
2019-01-25T14:44:01.533Z,95160.09
2019-01-25T14:46:28.992Z,95162.88
2019-01-25T14:48:56.464Z,95170.41
2019-01-25T14:51:24.140Z,95156.03
2019-01-25T14:53:51.575Z,95158.42
2019-01-25T14:56:18.995Z,95161.87
2019-01-25T14:58:46.508Z,95161.87
2019-01-25T15:01:13.906Z,95160.23
2019-01-25T15:03:41.408Z,95154.94
2019-01-25T15:06:08.887Z,95157.69
2019-01-25T15:08:39.342Z,95157.69
2019-01-25T15:11:06.884Z,95157.30
2019-01-25T15:13:38.061Z,95163.14
2019-01-25T15:16:05.500Z,95163.14
2019-01-25T15:18:32.928Z,95165.16
2019-01-25T15:21:00.423Z,95168.69
2019-01-25T15:23:27.904Z,95168.69
2019-01-25T15:25:55.362Z,95173.71
2019-01-25T15:28:22.867Z,95180.08
2019-01-25T15:30:50.287Z,95180.08
2019-01-25T15:33:17.772Z,95186.59
2019-01-25T15:35:45.208Z,95181.24
2019-01-25T15:38:12.624Z,95189.16
2019-01-25T15:40:40.224Z,95201.30
2019-01-25T15:43:07.668Z,95203.44
2019-01-25T15:45:35.120Z,95208.63
2019-01-25T15:48:02.706Z,95208.63
2019-01-25T15:50:31.855Z,95219.71
2019-01-25T15:52:59.319Z,95220.06
2019-01-25T15:55:27.157Z,95221.78
2019-01-25T15:57:55.934Z,95230.52
2019-01-25T16:00:24.799Z,95230.52
2019-01-25T16:02:52.932Z,95224.51
2019-01-25T16:05:22.396Z,95224.51
2019-01-25T16:07:51.322Z,95236.73
2019-01-25T16:10:19.987Z,95236.73
2019-01-25T16:12:47.559Z,95245.08
2019-01-25T16:15:17.420Z,95234.53
2019-01-25T16:17:47.068Z,95244.78
2019-01-25T16:20:15.693Z,95244.78
2019-01-25T16:22:43.573Z,95250.24
2019-01-25T16:25:19.684Z,95247.14
2019-01-25T16:27:47.490Z,95243.88
2019-01-25T16:30:18.093Z,95264.41
2019-01-25T16:32:46.399Z,95262.72
2019-01-25T16:35:15.240Z,95271.80
2019-01-25T16:37:42.992Z,95276.17
2019-01-25T16:40:13.231Z,95279.54
2019-01-25T16:42:40.880Z,95289.00
2019-01-25T16:45:12.622Z,95294.27
2019-01-25T16:47:40.322Z,95299.58
2019-01-25T16:50:08.929Z,95299.58
2019-01-25T16:52:36.504Z,95305.08
2019-01-25T16:55:05.227Z,95304.29
2019-01-25T16:57:32.906Z,95301.41
2019-01-25T17:00:00.491Z,95300.96
2019-01-25T17:02:28.374Z,95297.61
2019-01-25T17:04:56.138Z,95299.37
2019-01-25T17:07:23.828Z,95306.22
2019-01-25T17:09:51.774Z,95307.91
2019-01-25T17:12:19.457Z,95310.38
2019-01-25T17:14:47.071Z,95309.36
2019-01-25T17:17:14.730Z,95309.36
2019-01-25T17:19:42.460Z,95312.98
2019-01-25T17:22:10.322Z,95321.63
2019-01-25T17:24:39.294Z,95315.91
2019-01-25T17:27:07.621Z,95320.41
2019-01-25T17:29:35.446Z,95323.70
2019-01-25T17:32:03.395Z,95323.70
2019-01-25T17:34:31.330Z,95315.66
2019-01-25T17:36:59.226Z,95327.76
2019-01-25T17:39:28.250Z,95319.38
2019-01-25T17:41:56.114Z,95321.09
2019-01-25T17:44:23.949Z,95317.14
2019-01-25T17:46:51.844Z,95320.41
2019-01-25T17:49:20.272Z,95320.41
2019-01-25T17:51:48.249Z,95324.02
2019-01-25T17:54:16.083Z,95325.27
2019-01-25T17:56:43.927Z,95325.73
2019-01-25T17:59:11.967Z,95326.63
2019-01-25T18:01:43.910Z,95326.63
2019-01-25T18:04:11.792Z,95339.13
2019-01-25T18:06:39.944Z,95347.53
2019-01-25T18:09:08.707Z,95351.94
2019-01-25T18:11:38.950Z,95344.54
2019-01-25T18:14:06.984Z,95354.63
2019-01-25T18:16:36.113Z,95358.53
2019-01-25T18:19:04.215Z,95358.53
2019-01-25T18:21:32.199Z,95346.47
2019-01-25T18:24:00.133Z,95340.44
2019-01-25T18:26:28.069Z,95344.35
2019-01-25T18:29:11.330Z,95352.03
2019-01-25T18:31:39.712Z,95355.05
2019-01-25T18:34:07.646Z,95352.61
2019-01-25T18:36:38.528Z,95354.03
2019-01-25T18:39:08.697Z,95363.80
2019-01-25T18:41:36.586Z,95364.11
2019-01-25T18:44:05.484Z,95366.77
2019-01-25T18:46:37.264Z,95363.41
2019-01-25T18:49:05.415Z,95367.71
2019-01-25T18:51:33.457Z,95368.63
2019-01-25T18:54:01.582Z,95372.92
2019-01-25T18:56:29.747Z,95376.98
2019-01-25T18:58:58.322Z,95367.45
2019-01-25T19:01:26.240Z,95369.66
2019-01-25T19:03:55.240Z,95367.87
2019-01-25T19:06:23.282Z,95369.94
2019-01-25T19:08:51.436Z,95372.80
2019-01-25T19:11:19.432Z,95370.67
2019-01-25T19:13:47.420Z,95365.11
2019-01-25T19:16:15.478Z,95369.86
2019-01-25T19:18:43.487Z,95367.52
2019-01-25T19:21:11.522Z,95374.02
2019-01-25T19:23:39.503Z,95386.41
2019-01-25T19:26:07.558Z,95382.16
2019-01-25T19:28:35.553Z,95386.69
2019-01-25T19:31:04.475Z,95381.71
2019-01-25T19:33:37.254Z,95387.30
2019-01-25T19:36:05.468Z,95395.78
2019-01-25T19:38:33.475Z,95401.90
2019-01-25T19:41:01.529Z,95405.59
2019-01-25T19:43:29.692Z,95408.38
2019-01-25T19:45:57.718Z,95410.88
2019-01-25T19:48:25.832Z,95410.52
2019-01-25T19:50:53.863Z,95414.73
2019-01-25T19:53:21.841Z,95417.85
2019-01-25T19:55:50.367Z,95421.16
2019-01-25T19:58:19.384Z,95426.35
2019-01-25T20:00:47.434Z,95427.66
2019-01-25T20:03:15.535Z,95432.85
2019-01-25T20:05:43.387Z,95439.16
2019-01-25T20:08:11.579Z,95445.36
2019-01-25T20:10:39.950Z,95448.66
2019-01-25T20:13:10.348Z,95454.45
2019-01-25T20:15:38.866Z,95459.25
2019-01-25T20:18:06.853Z,95464.23
2019-01-25T20:20:35.551Z,95455.59
2019-01-25T20:23:04.215Z,95452.89
2019-01-25T20:25:32.188Z,95453.44
2019-01-25T20:28:00.345Z,95453.41
2019-01-25T20:30:30.136Z,95441.58
2019-01-25T20:32:59.395Z,95437.42
2019-01-25T20:35:29.810Z,95446.48
2019-01-25T20:37:57.801Z,95450.95
2019-01-25T20:40:25.814Z,95457.09
2019-01-25T20:42:53.803Z,95452.72
2019-01-25T20:45:27.729Z,95451.14
2019-01-25T20:47:55.604Z,95458.80
2019-01-25T20:50:25.534Z,95449.42
2019-01-25T20:52:53.521Z,95456.52
2019-01-25T20:55:21.497Z,95456.42
2019-01-25T20:57:49.344Z,95445.67
2019-01-25T21:00:23.133Z,95447.08
2019-01-25T21:02:51.188Z,95457.28
2019-01-25T21:05:19.352Z,95454.06
2019-01-25T21:07:47.438Z,95452.63
2019-01-25T21:10:17.060Z,95458.62
2019-01-25T21:12:45.205Z,95464.49
2019-01-25T21:15:14.600Z,95451.11
2019-01-25T21:17:42.718Z,95457.75
2019-01-25T21:20:13.572Z,95444.41
2019-01-25T21:22:42.802Z,95450.73
2019-01-25T21:25:11.025Z,95460.97
2019-01-25T21:27:38.976Z,95465.86
2019-01-25T21:30:09.948Z,95465.37
2019-01-25T21:32:37.609Z,95471.88
2019-01-25T21:35:07.676Z,95476.09
2019-01-25T21:37:35.725Z,95478.15
2019-01-25T21:40:08.682Z,95476.97
2019-01-25T21:42:35.174Z,95478.81
2019-01-25T21:45:03.356Z,95471.20
2019-01-25T21:47:31.145Z,95479.17
2019-01-25T21:49:59.156Z,95479.70
2019-01-25T21:52:26.714Z,95491.92
2019-01-25T21:54:54.517Z,95485.08
2019-01-25T21:57:22.744Z,95487.06
2019-01-25T21:59:50.408Z,95487.81
2019-01-25T22:02:18.090Z,95486.45
2019-01-25T22:04:45.716Z,95490.72
2019-01-25T22:07:13.430Z,95490.72
2019-01-25T22:09:40.915Z,95483.66
2019-01-25T22:12:08.712Z,95475.27
2019-01-25T22:14:36.268Z,95488.06
2019-01-25T22:17:03.876Z,95475.43
2019-01-25T22:19:31.419Z,95476.80
2019-01-25T22:21:59.092Z,95482.05
2019-01-25T22:24:26.566Z,95478.27
2019-01-25T22:26:53.989Z,95478.80
2019-01-25T22:29:23.070Z,95472.69
2019-01-25T22:31:50.619Z,95468.92
2019-01-25T22:34:18.064Z,95465.91
2019-01-25T22:36:45.491Z,95470.12
2019-01-25T22:39:12.880Z,95469.92
2019-01-25T22:41:40.889Z,95466.55
2019-01-25T22:44:08.249Z,95471.08
2019-01-25T22:46:36.649Z,95467.18
2019-01-25T22:49:04.052Z,95467.18
2019-01-25T22:51:31.609Z,95462.50
2019-01-25T22:53:59.026Z,95467.88
2019-01-25T22:56:26.412Z,95458.80
2019-01-25T22:58:53.803Z,95453.06
2019-01-25T23:01:32.946Z,95452.59
2019-01-25T23:04:50.144Z,95440.78
2019-01-25T23:07:20.987Z,95444.02
2019-01-25T23:09:54.068Z,95438.36
2019-01-25T23:12:21.470Z,95437.76
2019-01-25T23:14:48.934Z,95425.58
2019-01-25T23:17:16.349Z,95429.30
2019-01-25T23:19:43.726Z,95427.48
2019-01-25T23:22:11.150Z,95426.56
2019-01-25T23:24:38.535Z,95429.86
2019-01-25T23:27:05.914Z,95431.92
2019-01-25T23:29:33.287Z,95421.95
2019-01-25T23:32:00.687Z,95426.47
2019-01-25T23:34:28.046Z,95421.86
2019-01-25T23:36:55.391Z,95426.89
2019-01-25T23:39:22.787Z,95425.61
2019-01-25T23:41:50.203Z,95419.17
2019-01-25T23:44:17.542Z,95424.62
2019-01-25T23:46:44.947Z,95408.83
2019-01-25T23:49:12.329Z,95410.05
2019-01-25T23:51:39.685Z,95409.18
2019-01-25T23:54:07.122Z,95419.80
2019-01-25T23:56:34.463Z,95407.25
2019-01-25T23:59:01.835Z,95407.41
